CWPX

Cape Peel West Airport

Canada
METAR CWPX 190249Z AUTO 33020G25KT ////SM //// BKN010 BKN022 OVC120 M06/M08 A2967
Observed Flight Rules
Sep-19 @ 02:49 UTC (29 minutes ago)
Wind Clouds
330° at 20 knots
 Gusting to 25 knots
  • Broken at 1,000' AGL
  • Broken at 2,200' AGL
  • Overcast at 12,000' AGL
Temperatures Readings
Current -6°C / 21°F
Dewpoint -8°C / 18°F
Humidity 86%
Altimeter 29.67" Hg
Pressure 1005 hPa
Elevation 165
METAR CWPX 190249Z AUTO 33020G25KT ////SM //// BKN010 BKN022 OVC120 M06/M08 A2967
Observed Flight Rules
Sep-19 @ 02:49 UTC
(29 minutes ago)
Wind
330° at 20 knots
 Gusting to 25 knots
Clouds
  • Broken at 1,000' AGL
  • Broken at 2,200' AGL
  • Overcast at 12,000' AGL
Temperature Dewpoint
-6°C / 21°F -8°C / 18°F
Humidity Altimeter Pressure
86% 29.67" Hg 1005 hPa